createdAt,value
2018-04-13T00:00:11.037Z,9.43
2018-04-13T00:02:03.866Z,9.39
2018-04-13T00:03:03.816Z,9.40
2018-04-13T00:04:56.752Z,9.31
2018-04-13T00:05:56.797Z,9.34
2018-04-13T00:07:49.565Z,9.32
2018-04-13T00:08:49.504Z,9.41
2018-04-13T00:10:42.339Z,9.29
2018-04-13T00:11:42.286Z,9.29
2018-04-13T00:13:35.296Z,9.32
2018-04-13T00:14:35.247Z,9.36
2018-04-13T00:16:28.218Z,9.39
2018-04-13T00:17:28.197Z,9.26
2018-04-13T00:19:21.373Z,9.29
2018-04-13T00:20:21.319Z,9.19
2018-04-13T00:22:14.458Z,9.19
2018-04-13T00:23:14.403Z,9.16
2018-04-13T00:25:07.582Z,9.14
2018-04-13T00:26:07.517Z,9.19
2018-04-13T00:28:00.493Z,9.14
2018-04-13T00:29:00.443Z,9.11
2018-04-13T00:30:53.408Z,9.03
2018-04-13T00:31:53.378Z,9.10
2018-04-13T00:33:46.537Z,9.04
2018-04-13T00:34:46.454Z,9.10
2018-04-13T00:36:39.437Z,9.08
2018-04-13T00:37:39.389Z,9.00
2018-04-13T00:39:32.198Z,9.10
2018-04-13T00:40:32.213Z,9.04
2018-04-13T00:42:25.496Z,9.03
2018-04-13T00:43:25.276Z,9.03
2018-04-13T00:45:18.283Z,9.13
2018-04-13T00:46:18.244Z,9.02
2018-04-13T00:48:11.232Z,8.94
2018-04-13T00:49:11.182Z,8.91
2018-04-13T00:51:04.308Z,8.97
2018-04-13T00:52:04.187Z,8.85
2018-04-13T00:53:57.159Z,8.92
2018-04-13T00:54:57.124Z,8.85
2018-04-13T00:56:50.116Z,8.84
2018-04-13T00:57:50.057Z,8.91
2018-04-13T00:59:42.907Z,8.78
2018-04-13T01:00:42.863Z,8.71
2018-04-13T01:02:35.841Z,8.73
2018-04-13T01:03:35.781Z,8.79
2018-04-13T01:05:28.759Z,8.82
2018-04-13T01:06:28.771Z,8.76
2018-04-13T01:08:21.896Z,8.66
2018-04-13T01:09:21.802Z,8.73
2018-04-13T01:11:14.766Z,8.67
2018-04-13T01:12:14.716Z,8.64
2018-04-13T01:14:07.731Z,8.58
2018-04-13T01:15:07.667Z,8.58
2018-04-13T01:17:00.476Z,8.56
2018-04-13T01:18:00.438Z,8.56
2018-04-13T01:19:53.514Z,8.55
2018-04-13T01:20:53.373Z,8.60
2018-04-13T01:22:46.352Z,8.48
2018-04-13T01:23:46.292Z,8.51
2018-04-13T01:25:39.233Z,8.48
2018-04-13T01:26:39.207Z,8.45
2018-04-13T01:28:32.021Z,8.42
2018-04-13T01:29:31.963Z,8.41
2018-04-13T01:31:24.818Z,8.45
2018-04-13T01:32:24.758Z,8.42
2018-04-13T01:34:17.727Z,8.44
2018-04-13T01:35:17.663Z,8.41
2018-04-13T01:37:10.624Z,8.41
2018-04-13T01:38:10.619Z,8.45
2018-04-13T01:40:03.830Z,8.45
2018-04-13T01:41:03.636Z,8.37
2018-04-13T01:42:56.647Z,8.48
2018-04-13T01:43:56.589Z,8.41
2018-04-13T01:45:49.599Z,8.34
2018-04-13T01:46:49.582Z,8.42
2018-04-13T01:48:42.429Z,8.37
2018-04-13T01:49:42.372Z,8.41
2018-04-13T01:51:35.322Z,8.37
2018-04-13T01:52:35.283Z,8.27
2018-04-13T01:54:28.249Z,8.24
2018-04-13T01:55:28.222Z,8.30
2018-04-13T01:57:21.477Z,8.28
2018-04-13T01:58:21.334Z,8.27
2018-04-13T02:00:14.182Z,8.23
2018-04-13T02:01:14.110Z,8.19
2018-04-13T02:03:07.064Z,8.09
2018-04-13T02:04:07.095Z,8.01
2018-04-13T02:06:00.395Z,7.97
2018-04-13T02:07:00.184Z,7.88
2018-04-13T02:08:53.134Z,7.87
2018-04-13T02:09:53.093Z,7.87
2018-04-13T02:11:46.067Z,7.83
2018-04-13T02:12:46.006Z,7.80
2018-04-13T02:14:39.255Z,7.87
2018-04-13T02:15:39.133Z,7.87
2018-04-13T02:17:32.111Z,7.79
2018-04-13T02:18:32.055Z,7.85
2018-04-13T02:20:24.880Z,7.80
2018-04-13T02:21:24.884Z,7.82
2018-04-13T02:23:18.047Z,7.73
2018-04-13T02:24:17.909Z,7.73
2018-04-13T02:26:10.880Z,7.72
2018-04-13T02:27:10.831Z,7.79
2018-04-13T02:29:03.788Z,7.77
2018-04-13T02:30:03.822Z,7.80
2018-04-13T02:31:56.951Z,7.75
2018-04-13T02:32:56.828Z,7.66
2018-04-13T02:34:49.778Z,7.66
2018-04-13T02:35:49.740Z,7.66
2018-04-13T02:37:42.731Z,7.58
2018-04-13T02:38:42.664Z,7.61
2018-04-13T02:40:35.545Z,7.61
2018-04-13T02:41:35.486Z,7.66
2018-04-13T02:43:28.475Z,7.54
2018-04-13T02:44:28.429Z,7.48
2018-04-13T02:46:21.409Z,7.60
2018-04-13T02:47:21.334Z,7.51
2018-04-13T02:49:14.615Z,7.47
2018-04-13T02:50:14.475Z,7.50
2018-04-13T02:52:07.446Z,7.48
2018-04-13T02:53:07.395Z,7.47
2018-04-13T02:55:00.360Z,7.48
2018-04-13T02:56:00.323Z,7.51
2018-04-13T02:57:53.478Z,7.54
2018-04-13T02:58:53.428Z,7.54
2018-04-13T03:00:46.387Z,7.47
2018-04-13T03:01:46.349Z,7.47
2018-04-13T03:03:39.313Z,7.39
2018-04-13T03:04:39.246Z,7.39
2018-04-13T03:06:32.073Z,7.40
2018-04-13T03:07:32.070Z,7.38
2018-04-13T03:09:24.972Z,7.36
2018-04-13T03:10:24.790Z,7.39
2018-04-13T03:12:17.644Z,7.38
2018-04-13T03:13:17.559Z,7.35
2018-04-13T03:15:10.494Z,7.32
2018-04-13T03:16:10.465Z,7.31
2018-04-13T03:18:03.278Z,7.25
2018-04-13T03:19:03.215Z,7.36
2018-04-13T03:20:56.457Z,7.33
2018-04-13T03:21:56.268Z,7.28
2018-04-13T03:23:49.110Z,7.28
2018-04-13T03:24:49.024Z,7.29
2018-04-13T03:26:41.982Z,7.24
2018-04-13T03:27:41.941Z,7.31
2018-04-13T03:29:34.769Z,7.29
2018-04-13T03:30:34.756Z,7.29
2018-04-13T03:32:27.957Z,7.23
2018-04-13T03:33:27.821Z,7.28
2018-04-13T03:35:20.621Z,7.28
2018-04-13T03:36:20.573Z,7.29
2018-04-13T03:38:13.576Z,7.21
2018-04-13T03:39:13.603Z,7.29
2018-04-13T03:41:06.804Z,7.31
2018-04-13T03:42:06.612Z,7.28
2018-04-13T03:43:59.638Z,7.23
2018-04-13T03:44:59.577Z,7.23
2018-04-13T03:46:52.532Z,7.24
2018-04-13T03:47:52.489Z,7.15
2018-04-13T03:49:45.333Z,7.17
2018-04-13T03:50:45.265Z,7.10
2018-04-13T03:52:38.150Z,7.02
2018-04-13T03:53:38.034Z,7.06
2018-04-13T03:55:31.004Z,7.03
2018-04-13T03:56:30.954Z,7.14
2018-04-13T03:58:23.767Z,7.11
2018-04-13T03:59:23.708Z,7.02
2018-04-13T04:01:16.665Z,7.02
2018-04-13T04:02:16.628Z,7.03
2018-04-13T04:04:09.788Z,7.02
2018-04-13T04:05:09.582Z,7.06
2018-04-13T04:07:02.554Z,7.07
2018-04-13T04:08:02.501Z,7.07
2018-04-13T04:09:55.334Z,7.02
2018-04-13T04:10:55.297Z,7.14
2018-04-13T04:12:48.232Z,7.11
2018-04-13T04:13:48.188Z,7.07
2018-04-13T04:15:41.229Z,7.07
2018-04-13T04:16:41.022Z,7.10
2018-04-13T04:18:33.999Z,7.11
2018-04-13T04:19:33.928Z,7.05
2018-04-13T04:21:26.874Z,7.07
2018-04-13T04:22:26.840Z,7.06
2018-04-13T04:24:20.116Z,7.11
2018-04-13T04:25:19.959Z,7.10
2018-04-13T04:27:12.919Z,7.07
2018-04-13T04:28:12.915Z,7.03
2018-04-13T04:30:05.843Z,7.10
2018-04-13T04:31:05.794Z,7.10
2018-04-13T04:32:58.621Z,7.03
2018-04-13T04:33:58.584Z,7.00
2018-04-13T04:35:51.598Z,6.97
2018-04-13T04:36:51.390Z,6.95
2018-04-13T04:38:44.830Z,6.93
2018-04-13T04:39:44.304Z,6.93
2018-04-13T04:41:37.301Z,6.87
2018-04-13T04:42:37.243Z,6.95
2018-04-13T04:44:30.444Z,6.85
2018-04-13T04:45:30.188Z,6.89
2018-04-13T04:47:23.154Z,6.96
2018-04-13T04:48:23.119Z,6.89
2018-04-13T04:50:15.951Z,6.92
2018-04-13T04:51:15.879Z,6.88
2018-04-13T04:53:08.846Z,6.87
2018-04-13T04:54:08.804Z,6.87
2018-04-13T04:56:02.111Z,6.92
2018-04-13T04:57:02.052Z,6.96
2018-04-13T04:58:55.006Z,6.92
2018-04-13T04:59:54.972Z,6.95
2018-04-13T05:01:48.222Z,6.97
2018-04-13T05:02:48.090Z,6.97
2018-04-13T05:04:41.100Z,6.97
2018-04-13T05:05:41.180Z,6.99
2018-04-13T05:07:34.047Z,7.00
2018-04-13T05:08:33.977Z,6.92
2018-04-13T05:10:26.800Z,6.99
2018-04-13T05:11:26.777Z,7.06
2018-04-13T05:13:19.726Z,7.03
2018-04-13T05:14:19.681Z,7.10
2018-04-13T05:16:12.680Z,7.10
2018-04-13T05:17:12.685Z,7.00
2018-04-13T05:19:05.876Z,7.05
2018-04-13T05:20:05.721Z,6.99
2018-04-13T05:21:58.696Z,7.18
2018-04-13T05:22:58.667Z,7.18
2018-04-13T05:24:51.623Z,7.17
2018-04-13T05:25:51.569Z,7.23
2018-04-13T05:27:44.637Z,7.29
2018-04-13T05:28:44.485Z,7.25
2018-04-13T05:30:37.350Z,7.33
2018-04-13T05:31:37.240Z,7.35
2018-04-13T05:33:30.212Z,7.39
2018-04-13T05:34:30.151Z,7.48
2018-04-13T05:36:23.106Z,7.42
2018-04-13T05:37:23.071Z,7.50
2018-04-13T05:39:15.903Z,7.53
2018-04-13T05:40:15.844Z,7.57
2018-04-13T05:42:08.752Z,7.60
2018-04-13T05:43:08.629Z,7.72
2018-04-13T05:45:01.612Z,7.67
2018-04-13T05:46:01.544Z,7.66
2018-04-13T05:47:54.493Z,7.79
2018-04-13T05:48:54.488Z,7.80
2018-04-13T05:50:47.669Z,7.83
2018-04-13T05:51:47.567Z,7.87
2018-04-13T05:53:40.542Z,7.88
2018-04-13T05:54:40.480Z,7.98
2018-04-13T05:56:33.429Z,8.06
2018-04-13T05:57:33.401Z,8.06
2018-04-13T05:59:26.355Z,8.09
2018-04-13T06:00:26.298Z,8.15
2018-04-13T06:02:19.264Z,8.19
2018-04-13T06:03:19.222Z,8.23
2018-04-13T06:05:12.223Z,8.23
2018-04-13T06:06:12.250Z,8.24
2018-04-13T06:08:05.363Z,8.36
2018-04-13T06:09:05.254Z,8.36
2018-04-13T06:10:58.234Z,8.44
2018-04-13T06:11:58.180Z,8.44
2018-04-13T06:13:51.127Z,8.49
2018-04-13T06:14:51.129Z,8.45
2018-04-13T06:16:44.308Z,8.58
2018-04-13T06:17:44.245Z,8.60
2018-04-13T06:19:37.090Z,8.64
2018-04-13T06:20:37.000Z,8.71
2018-04-13T06:22:29.955Z,8.73
2018-04-13T06:23:29.953Z,8.74
2018-04-13T06:25:23.167Z,8.78
2018-04-13T06:26:23.008Z,8.99
2018-04-13T06:28:16.008Z,8.94
2018-04-13T06:29:15.968Z,9.08
2018-04-13T06:31:08.961Z,8.99
2018-04-13T06:32:08.892Z,9.13
2018-04-13T06:34:01.732Z,9.08
2018-04-13T06:35:01.697Z,9.08
2018-04-13T06:36:55.123Z,9.19
2018-04-13T06:37:54.628Z,9.22
2018-04-13T06:39:47.436Z,9.26
2018-04-13T06:40:47.384Z,9.31
2018-04-13T06:42:40.390Z,9.40
2018-04-13T06:43:40.383Z,9.47
2018-04-13T06:45:33.424Z,9.46
2018-04-13T06:46:33.273Z,9.62
2018-04-13T06:48:26.209Z,9.61
2018-04-13T06:49:26.183Z,9.68
2018-04-13T06:51:18.997Z,9.72
2018-04-13T06:52:18.958Z,9.69
2018-04-13T06:54:11.902Z,9.84
2018-04-13T06:55:11.863Z,9.91
2018-04-13T06:57:04.730Z,9.99
2018-04-13T06:58:04.662Z,10.04
2018-04-13T06:59:57.553Z,10.02
2018-04-13T07:00:57.439Z,10.09
2018-04-13T07:02:50.465Z,10.09
2018-04-13T07:03:50.388Z,10.23
2018-04-13T07:05:43.351Z,10.25
2018-04-13T07:06:43.350Z,10.25
2018-04-13T07:08:36.203Z,10.26
2018-04-13T07:09:36.168Z,10.40
2018-04-13T07:11:29.161Z,10.51
2018-04-13T07:12:29.101Z,10.56
2018-04-13T07:14:22.048Z,10.71
2018-04-13T07:15:22.048Z,10.75
2018-04-13T07:17:15.294Z,10.86
2018-04-13T07:18:15.137Z,10.81
2018-04-13T07:20:08.141Z,11.11
2018-04-13T07:21:08.100Z,11.17
2018-04-13T07:23:01.070Z,11.27
2018-04-13T07:24:01.029Z,11.29
2018-04-13T07:25:53.869Z,11.43
2018-04-13T07:26:53.824Z,11.54
2018-04-13T07:28:46.784Z,11.51
2018-04-13T07:29:46.757Z,11.66
2018-04-13T07:31:39.717Z,11.68
2018-04-13T07:32:39.687Z,11.70
2018-04-13T07:34:33.006Z,11.69
2018-04-13T07:35:32.782Z,11.84
2018-04-13T07:37:25.754Z,12.00
2018-04-13T07:38:25.798Z,11.97
2018-04-13T07:40:18.709Z,12.22
2018-04-13T07:41:18.658Z,12.17
2018-04-13T07:43:11.883Z,12.25
2018-04-13T07:44:11.794Z,12.29
2018-04-13T07:46:04.598Z,12.40
2018-04-13T07:47:04.564Z,12.49
2018-04-13T07:48:57.590Z,12.55
2018-04-13T07:49:57.505Z,12.61
2018-04-13T07:51:50.713Z,12.64
2018-04-13T07:52:50.694Z,12.61
2018-04-13T07:54:43.736Z,12.67
2018-04-13T07:55:43.759Z,12.68
2018-04-13T07:57:36.909Z,12.82
2018-04-13T07:58:36.794Z,12.82
2018-04-13T08:00:29.647Z,12.93
2018-04-13T08:01:29.587Z,13.01
2018-04-13T08:03:22.838Z,13.09
2018-04-13T08:04:22.581Z,13.20
2018-04-13T08:06:15.766Z,13.31
2018-04-13T08:07:15.613Z,13.31
2018-04-13T08:09:08.591Z,13.47
2018-04-13T08:10:08.559Z,13.54
2018-04-13T08:12:01.559Z,13.63
2018-04-13T08:13:01.501Z,13.74
2018-04-13T08:14:54.351Z,13.79
2018-04-13T08:15:54.432Z,13.83
2018-04-13T08:17:47.284Z,13.95
2018-04-13T08:18:47.232Z,14.00
2018-04-13T08:20:40.222Z,13.99
2018-04-13T08:21:40.172Z,14.10
2018-04-13T08:23:33.365Z,14.22
2018-04-13T08:24:33.331Z,14.23
2018-04-13T08:26:26.185Z,14.50
2018-04-13T08:27:26.129Z,14.58
2018-04-13T08:29:19.453Z,14.65
2018-04-13T08:30:19.408Z,14.78
2018-04-13T08:32:12.420Z,14.89
2018-04-13T08:33:12.346Z,15.03
2018-04-13T08:35:05.358Z,15.04
2018-04-13T08:36:05.285Z,15.11
2018-04-13T08:37:58.494Z,15.33
2018-04-13T08:38:58.423Z,15.37
2018-04-13T08:40:51.415Z,15.46
2018-04-13T08:41:51.382Z,15.55
2018-04-13T08:43:44.343Z,15.65
2018-04-13T08:44:44.310Z,15.61
2018-04-13T08:46:37.385Z,15.65
2018-04-13T08:47:37.181Z,15.72
2018-04-13T08:49:30.152Z,15.75
2018-04-13T08:50:30.150Z,15.75
2018-04-13T08:52:23.110Z,15.73
2018-04-13T08:53:23.156Z,15.73
2018-04-13T08:55:16.301Z,15.70
2018-04-13T08:56:16.200Z,15.79
2018-04-13T08:58:09.191Z,15.62
2018-04-13T08:59:09.127Z,15.65
2018-04-13T09:01:02.168Z,15.67
2018-04-13T09:02:02.065Z,15.70
2018-04-13T09:03:55.023Z,15.64
2018-04-13T09:04:54.926Z,15.46
2018-04-13T09:06:47.920Z,15.24
2018-04-13T09:07:47.878Z,15.18
2018-04-13T09:09:40.691Z,15.28
2018-04-13T09:10:40.648Z,15.31
2018-04-13T09:12:33.643Z,15.29
2018-04-13T09:13:33.592Z,15.42
2018-04-13T09:15:26.397Z,15.39
2018-04-13T09:16:26.379Z,15.57
2018-04-13T09:18:19.343Z,15.73
2018-04-13T09:19:19.299Z,15.70
2018-04-13T09:21:12.274Z,15.95
2018-04-13T09:22:12.242Z,15.88
2018-04-13T09:24:05.434Z,15.75
2018-04-13T09:25:05.317Z,15.65
2018-04-13T09:26:58.308Z,15.33
2018-04-13T09:27:58.267Z,15.33
2018-04-13T09:29:51.261Z,15.18
2018-04-13T09:30:51.198Z,15.39
2018-04-13T09:32:44.133Z,15.47
2018-04-13T09:33:44.089Z,15.44
2018-04-13T09:35:37.052Z,15.47
2018-04-13T09:36:37.018Z,15.55
2018-04-13T09:38:30.018Z,15.42
2018-04-13T09:39:29.955Z,15.43
2018-04-13T09:41:23.196Z,15.52
2018-04-13T09:42:23.117Z,15.28
2018-04-13T09:44:16.127Z,15.43
2018-04-13T09:45:16.074Z,15.44
2018-04-13T09:47:09.024Z,15.64
2018-04-13T09:48:09.006Z,15.64
2018-04-13T09:50:02.059Z,15.73
2018-04-13T09:51:01.811Z,15.76
2018-04-13T09:52:54.771Z,15.75
2018-04-13T09:53:54.730Z,15.82
2018-04-13T09:55:47.713Z,15.84
2018-04-13T09:56:47.775Z,15.75
2018-04-13T09:58:40.892Z,15.65
2018-04-13T09:59:40.773Z,15.42
2018-04-13T10:01:33.742Z,15.43
2018-04-13T10:02:33.737Z,15.59
2018-04-13T10:04:26.690Z,15.62
2018-04-13T10:05:26.669Z,15.57
2018-04-13T10:07:19.522Z,15.43
2018-04-13T10:08:19.505Z,15.35
2018-04-13T10:10:12.404Z,15.58
2018-04-13T10:11:12.285Z,15.61
2018-04-13T10:13:05.295Z,15.90
2018-04-13T10:14:05.240Z,15.79
2018-04-13T10:15:58.199Z,15.76
2018-04-13T10:16:58.168Z,15.82
2018-04-13T10:18:51.003Z,15.77
2018-04-13T10:19:50.959Z,15.70
2018-04-13T10:21:43.960Z,15.75
2018-04-13T10:22:43.913Z,15.73
2018-04-13T10:24:36.915Z,15.75
2018-04-13T10:25:36.893Z,15.72
2018-04-13T10:27:29.672Z,15.84
2018-04-13T10:28:29.618Z,15.91
2018-04-13T10:30:22.709Z,15.90
2018-04-13T10:31:22.500Z,15.83
2018-04-13T10:33:15.843Z,15.67
2018-04-13T10:34:15.797Z,15.75
2018-04-13T10:36:08.628Z,15.64
2018-04-13T10:37:08.582Z,15.68
2018-04-13T10:39:01.571Z,15.76
2018-04-13T10:40:01.522Z,15.75
2018-04-13T10:41:54.468Z,15.91
2018-04-13T10:42:54.453Z,16.00
2018-04-13T10:44:47.274Z,16.00
2018-04-13T10:45:47.246Z,16.08
2018-04-13T10:47:40.436Z,16.09
2018-04-13T10:48:40.315Z,16.12
2018-04-13T10:50:33.149Z,15.97
2018-04-13T10:51:33.123Z,15.91
2018-04-13T10:53:26.084Z,16.02
2018-04-13T10:54:26.098Z,16.00
2018-04-13T10:56:19.296Z,16.04
2018-04-13T10:57:19.175Z,16.02
2018-04-13T10:59:12.143Z,15.98
2018-04-13T11:00:12.098Z,15.91
2018-04-13T11:02:05.096Z,15.94
2018-04-13T11:03:05.060Z,15.98
2018-04-13T11:04:57.870Z,15.84
2018-04-13T11:05:57.845Z,15.76
2018-04-13T11:07:50.830Z,15.82
2018-04-13T11:08:50.766Z,15.86
2018-04-13T11:10:43.744Z,15.97
2018-04-13T11:11:43.824Z,15.95
2018-04-13T11:13:36.996Z,16.01
2018-04-13T11:14:36.847Z,15.92
2018-04-13T11:16:29.847Z,15.82
2018-04-13T11:17:29.789Z,15.94
2018-04-13T11:19:22.755Z,16.01
2018-04-13T11:20:22.722Z,16.15
2018-04-13T11:22:15.917Z,15.86
2018-04-13T11:23:15.847Z,16.04
2018-04-13T11:25:08.813Z,16.17
2018-04-13T11:26:08.809Z,16.10
2018-04-13T11:28:01.978Z,16.04
2018-04-13T11:29:01.919Z,15.98
2018-04-13T11:30:54.899Z,16.13
2018-04-13T11:31:54.844Z,16.00
2018-04-13T11:33:47.824Z,16.09
2018-04-13T11:34:47.790Z,16.12
2018-04-13T11:36:40.774Z,15.92
2018-04-13T11:37:40.685Z,15.98
2018-04-13T11:39:33.609Z,15.97
2018-04-13T11:40:33.487Z,16.01
2018-04-13T11:42:26.495Z,15.97
2018-04-13T11:43:26.429Z,15.94
2018-04-13T11:45:19.403Z,16.17
2018-04-13T11:46:19.358Z,16.09
2018-04-13T11:48:12.186Z,16.05
2018-04-13T11:49:12.134Z,16.02
2018-04-13T11:51:05.103Z,15.97
2018-04-13T11:52:05.073Z,16.02
2018-04-13T11:53:58.071Z,15.91
2018-04-13T11:54:58.014Z,16.02
2018-04-13T11:56:51.188Z,15.90
2018-04-13T11:57:51.166Z,15.95
2018-04-13T11:59:44.149Z,15.86
2018-04-13T12:00:44.108Z,15.80
2018-04-13T12:02:37.089Z,15.95
2018-04-13T12:03:37.040Z,16.01
2018-04-13T12:05:29.875Z,15.82
2018-04-13T12:06:29.815Z,15.91
2018-04-13T12:08:22.788Z,16.01
2018-04-13T12:09:22.751Z,15.94
2018-04-13T12:11:15.742Z,16.01
2018-04-13T12:12:15.778Z,15.98
2018-04-13T12:14:09.007Z,16.04
2018-04-13T12:15:08.810Z,15.97
2018-04-13T12:17:01.811Z,16.09
2018-04-13T12:18:01.761Z,15.86
2018-04-13T12:19:54.612Z,16.01
2018-04-13T12:20:54.653Z,15.91
2018-04-13T12:22:47.769Z,15.97
2018-04-13T12:23:47.659Z,16.04
2018-04-13T12:25:40.506Z,16.15
2018-04-13T12:26:40.470Z,16.16
2018-04-13T12:28:33.430Z,16.23
2018-04-13T12:29:33.496Z,16.29
2018-04-13T12:31:26.697Z,16.39
2018-04-13T12:32:26.509Z,16.68
2018-04-13T12:34:19.507Z,16.58
2018-04-13T12:35:19.439Z,16.56
2018-04-13T12:37:12.431Z,16.81
2018-04-13T12:38:12.399Z,16.86
2018-04-13T12:40:05.222Z,16.99
2018-04-13T12:41:05.191Z,16.86
2018-04-13T12:42:58.321Z,16.97
2018-04-13T12:43:58.295Z,17.23
2018-04-13T12:45:51.119Z,17.22
2018-04-13T12:46:51.078Z,17.24
2018-04-13T12:48:44.286Z,17.23
2018-04-13T12:49:44.195Z,17.24
2018-04-13T12:51:37.187Z,17.56
2018-04-13T12:52:37.156Z,17.76
2018-04-13T12:54:30.159Z,17.42
2018-04-13T12:55:30.141Z,17.48
2018-04-13T12:57:23.433Z,17.67
2018-04-13T12:58:23.392Z,17.68
2018-04-13T13:00:16.236Z,17.57
2018-04-13T13:01:16.150Z,17.70
2018-04-13T13:03:10.190Z,17.49
2018-04-13T13:04:10.121Z,17.56
2018-04-13T13:06:03.125Z,17.54
2018-04-13T13:07:02.907Z,17.72
2018-04-13T13:08:55.976Z,17.48
2018-04-13T13:09:55.883Z,17.41
2018-04-13T13:11:48.871Z,17.39
2018-04-13T13:12:48.807Z,17.34
2018-04-13T13:14:41.634Z,17.36
2018-04-13T13:15:41.630Z,17.09
2018-04-13T13:17:34.616Z,17.29
2018-04-13T13:18:34.566Z,17.34
2018-04-13T13:20:27.385Z,17.27
2018-04-13T13:21:27.361Z,17.39
2018-04-13T13:23:20.368Z,17.08
2018-04-13T13:24:20.302Z,17.08
2018-04-13T13:26:13.186Z,17.06
2018-04-13T13:27:13.141Z,17.19
2018-04-13T13:29:06.139Z,17.14
2018-04-13T13:30:06.097Z,17.16
2018-04-13T13:31:59.098Z,17.30
2018-04-13T13:32:59.112Z,17.33
2018-04-13T13:34:52.295Z,17.41
2018-04-13T13:35:52.171Z,17.36
2018-04-13T13:37:45.120Z,17.39
2018-04-13T13:38:45.071Z,17.08
2018-04-13T13:40:38.047Z,17.56
2018-04-13T13:41:38.013Z,17.48
2018-04-13T13:43:31.025Z,17.71
2018-04-13T13:44:30.870Z,17.63
2018-04-13T13:46:24.186Z,17.79
2018-04-13T13:47:24.136Z,17.86
2018-04-13T13:49:17.423Z,17.72
2018-04-13T13:50:17.285Z,17.94
2018-04-13T13:52:10.253Z,17.95
2018-04-13T13:53:10.217Z,17.97
2018-04-13T13:55:03.236Z,18.08
2018-04-13T13:56:03.184Z,18.16
2018-04-13T13:57:56.266Z,18.47
2018-04-13T13:58:56.217Z,18.11
2018-04-13T14:00:49.230Z,18.15
2018-04-13T14:01:49.163Z,18.34
2018-04-13T14:03:42.159Z,18.56
2018-04-13T14:04:42.135Z,18.34
2018-04-13T14:06:35.113Z,18.05
2018-04-13T14:07:34.930Z,18.15
2018-04-13T14:09:27.801Z,18.53
2018-04-13T14:10:27.720Z,18.38
2018-04-13T14:12:20.707Z,18.38
2018-04-13T14:13:20.766Z,18.45
2018-04-13T14:15:14.064Z,18.63
2018-04-13T14:16:13.993Z,18.55
2018-04-13T14:18:07.087Z,17.82
2018-04-13T14:19:07.042Z,17.94
2018-04-13T14:21:00.246Z,17.85
2018-04-13T14:22:00.154Z,17.95
2018-04-13T14:23:53.179Z,18.08
2018-04-13T14:24:53.206Z,17.79
2018-04-13T14:26:46.414Z,17.86
2018-04-13T14:27:46.234Z,17.68
2018-04-13T14:29:39.048Z,17.71
2018-04-13T14:30:39.031Z,17.82
2018-04-13T14:32:32.041Z,17.94
2018-04-13T14:33:32.078Z,17.98
2018-04-13T14:35:25.276Z,17.72
2018-04-13T14:36:25.121Z,17.60
2018-04-13T14:38:18.130Z,17.64
2018-04-13T14:39:18.095Z,17.79
2018-04-13T14:41:11.112Z,17.63
2018-04-13T14:42:11.034Z,17.51
2018-04-13T14:44:03.874Z,17.49
2018-04-13T14:45:03.844Z,17.52
2018-04-13T14:46:56.849Z,17.38
2018-04-13T14:47:56.786Z,17.44
2018-04-13T14:49:49.797Z,17.67
2018-04-13T14:50:49.730Z,17.64
2018-04-13T14:52:43.033Z,17.65
2018-04-13T14:53:42.993Z,17.45
2018-04-13T14:55:36.009Z,17.44
2018-04-13T14:56:35.993Z,17.30
2018-04-13T14:58:28.823Z,17.20
2018-04-13T14:59:28.789Z,17.30
2018-04-13T15:01:21.843Z,17.27
2018-04-13T15:02:21.819Z,17.34
2018-04-13T15:04:14.768Z,17.23
2018-04-13T15:05:14.738Z,17.26
2018-04-13T15:07:08.082Z,17.22
2018-04-13T15:08:07.892Z,17.33
2018-04-13T15:10:00.696Z,17.27
2018-04-13T15:11:00.646Z,17.19
2018-04-13T15:12:53.644Z,17.06
2018-04-13T15:13:53.717Z,17.09
2018-04-13T15:15:46.883Z,17.04
2018-04-13T15:16:46.723Z,17.01
2018-04-13T15:18:39.702Z,17.01
2018-04-13T15:19:39.661Z,17.04
2018-04-13T15:21:32.634Z,17.19
2018-04-13T15:22:32.614Z,17.14
2018-04-13T15:24:25.812Z,17.20
2018-04-13T15:25:25.737Z,17.26
2018-04-13T15:27:18.712Z,17.08
2018-04-13T15:28:18.770Z,17.04
2018-04-13T15:30:11.517Z,17.14
2018-04-13T15:31:11.464Z,17.06
2018-04-13T15:33:04.663Z,16.94
2018-04-13T15:34:04.579Z,16.97
2018-04-13T15:35:57.591Z,17.05
2018-04-13T15:36:57.691Z,17.22
2018-04-13T15:38:50.348Z,17.19
2018-04-13T15:39:50.306Z,17.06
2018-04-13T15:41:43.335Z,17.22
2018-04-13T15:42:43.316Z,17.26
2018-04-13T15:44:36.356Z,17.09
2018-04-13T15:45:36.252Z,17.05
2018-04-13T15:47:29.258Z,17.04
2018-04-13T15:48:29.169Z,17.05
2018-04-13T15:50:22.330Z,16.91
2018-04-13T15:51:22.109Z,16.86
2018-04-13T15:53:15.084Z,16.90
2018-04-13T15:54:15.027Z,16.69
2018-04-13T15:56:08.031Z,16.89
2018-04-13T15:57:08.022Z,16.97
2018-04-13T15:59:01.171Z,16.89
2018-04-13T16:00:01.114Z,16.78
2018-04-13T16:01:54.111Z,16.58
2018-04-13T16:02:54.052Z,16.58
2018-04-13T16:04:47.034Z,16.43
2018-04-13T16:05:47.007Z,16.36
2018-04-13T16:07:40.099Z,16.28
2018-04-13T16:08:40.037Z,16.29
2018-04-13T16:10:32.835Z,16.21
2018-04-13T16:11:32.840Z,16.31
2018-04-13T16:13:25.794Z,16.10
2018-04-13T16:14:25.797Z,16.15
2018-04-13T16:16:18.588Z,16.15
2018-04-13T16:17:18.615Z,16.16
2018-04-13T16:19:11.571Z,16.12
2018-04-13T16:20:11.325Z,15.97
2018-04-13T16:22:04.320Z,16.05
2018-04-13T16:23:04.278Z,16.16
2018-04-13T16:24:57.236Z,16.05
2018-04-13T16:25:57.215Z,16.05
2018-04-13T16:27:50.415Z,16.01
2018-04-13T16:28:50.331Z,15.97
2018-04-13T16:30:43.368Z,15.95
2018-04-13T16:31:43.452Z,15.98
2018-04-13T16:33:36.505Z,15.91
2018-04-13T16:34:36.407Z,15.92
2018-04-13T16:36:29.394Z,15.76
2018-04-13T16:37:29.340Z,15.77
2018-04-13T16:39:22.178Z,15.65
2018-04-13T16:40:22.299Z,15.68
2018-04-13T16:42:15.131Z,15.77
2018-04-13T16:43:15.090Z,15.82
2018-04-13T16:45:08.056Z,15.84
2018-04-13T16:46:07.861Z,15.76
2018-04-13T16:48:00.756Z,15.58
2018-04-13T16:49:00.646Z,15.67
2018-04-13T16:50:53.635Z,15.65
2018-04-13T16:51:53.694Z,15.54
2018-04-13T16:53:47.001Z,15.46
2018-04-13T16:54:46.795Z,15.47
2018-04-13T16:56:39.803Z,15.62
2018-04-13T16:57:39.754Z,15.62
2018-04-13T16:59:32.590Z,15.58
2018-04-13T17:00:32.521Z,15.64
2018-04-13T17:02:25.820Z,15.70
2018-04-13T17:03:25.620Z,15.62
2018-04-13T17:05:18.605Z,15.64
2018-04-13T17:06:18.555Z,15.59
2018-04-13T17:08:11.560Z,15.62
2018-04-13T17:09:11.505Z,15.61
2018-04-13T17:11:04.306Z,15.62
2018-04-13T17:12:04.292Z,15.75
2018-04-13T17:13:57.373Z,15.73
2018-04-13T17:14:57.295Z,15.73
2018-04-13T17:16:50.338Z,15.73
2018-04-13T17:17:50.361Z,15.70
2018-04-13T17:19:43.149Z,15.73
2018-04-13T17:20:43.101Z,15.68
2018-04-13T17:22:35.958Z,15.62
2018-04-13T17:23:35.910Z,15.68
2018-04-13T17:25:28.891Z,15.68
2018-04-13T17:26:28.852Z,15.70
2018-04-13T17:28:21.825Z,15.64
2018-04-13T17:29:21.817Z,15.59
2018-04-13T17:31:15.015Z,15.62
2018-04-13T17:32:14.917Z,15.67
2018-04-13T17:34:07.916Z,15.62
2018-04-13T17:35:07.857Z,15.58
2018-04-13T17:37:00.818Z,15.55
2018-04-13T17:38:00.838Z,15.57
2018-04-13T17:39:53.835Z,15.58
2018-04-13T17:40:53.628Z,15.52
2018-04-13T17:42:46.633Z,15.58
2018-04-13T17:43:46.566Z,15.54
2018-04-13T17:45:39.602Z,15.49
2018-04-13T17:46:39.600Z,15.55
2018-04-13T17:48:32.305Z,15.44
2018-04-13T17:49:32.255Z,15.52
2018-04-13T17:51:25.089Z,15.42
2018-04-13T17:52:25.095Z,15.51
2018-04-13T17:54:18.050Z,15.43
2018-04-13T17:55:17.975Z,15.43
2018-04-13T17:57:11.004Z,15.39
2018-04-13T17:58:10.977Z,15.44
2018-04-13T18:00:04.298Z,15.40
2018-04-13T18:01:04.148Z,15.40
2018-04-13T18:02:56.964Z,15.31
2018-04-13T18:03:56.918Z,15.35
2018-04-13T18:05:50.046Z,15.29
2018-04-13T18:06:49.794Z,15.31
2018-04-13T18:08:43.129Z,15.33
2018-04-13T18:09:42.976Z,15.18
2018-04-13T18:11:35.908Z,15.24
2018-04-13T18:12:35.875Z,15.25
2018-04-13T18:14:28.904Z,15.18
2018-04-13T18:15:28.811Z,15.18
2018-04-13T18:17:21.659Z,15.18
2018-04-13T18:18:21.609Z,15.15
2018-04-13T18:20:14.449Z,15.06
2018-04-13T18:21:14.410Z,15.07
2018-04-13T18:23:07.369Z,15.04
2018-04-13T18:24:07.331Z,15.07
2018-04-13T18:26:00.290Z,15.00
2018-04-13T18:27:00.252Z,15.04
2018-04-13T18:28:53.161Z,14.97
2018-04-13T18:29:53.073Z,14.99
2018-04-13T18:31:46.076Z,14.92
2018-04-13T18:32:45.891Z,14.88
2018-04-13T18:34:38.867Z,15.02
2018-04-13T18:35:38.787Z,14.84
2018-04-13T18:37:32.798Z,14.85
2018-04-13T18:38:31.761Z,14.85
2018-04-13T18:40:24.664Z,14.81
2018-04-13T18:41:24.638Z,14.73
2018-04-13T18:43:17.640Z,14.66
2018-04-13T18:44:17.562Z,14.65
2018-04-13T18:46:10.549Z,14.77
2018-04-13T18:47:10.490Z,14.63